createdAt,value
2023-04-09T00:01:13.183Z,102602.47
2023-04-09T00:04:15.760Z,102603.03
2023-04-09T00:07:20.197Z,102599.16
2023-04-09T00:10:22.751Z,102599.75
2023-04-09T00:13:31.960Z,102597.28
2023-04-09T00:16:41.407Z,102599.53
2023-04-09T00:19:44.046Z,102600.66
2023-04-09T00:22:48.477Z,102599.81
2023-04-09T00:25:50.984Z,102591.81
2023-04-09T00:28:53.754Z,102593.50
2023-04-09T00:31:56.599Z,102592.69
2023-04-09T00:34:59.161Z,102586.09
2023-04-09T00:38:03.047Z,102586.69
2023-04-09T00:41:05.808Z,102585.34
2023-04-09T00:44:08.384Z,102585.63
2023-04-09T00:47:11.064Z,102581.22
2023-04-09T00:50:13.620Z,102580.69
2023-04-09T00:53:17.494Z,102567.09
2023-04-09T00:56:19.978Z,102575.72
2023-04-09T00:59:22.601Z,102577.97
2023-04-09T01:02:25.363Z,102571.59
2023-04-09T01:05:29.452Z,102570.78
2023-04-09T01:08:37.317Z,102577.16
2023-04-09T01:11:42.940Z,102568.53
2023-04-09T01:14:46.724Z,102581.28
2023-04-09T01:17:51.638Z,102579.03
2023-04-09T01:20:58.390Z,102579.03
2023-04-09T01:24:10.692Z,102567.94
2023-04-09T01:27:13.205Z,102577.38
2023-04-09T01:30:17.545Z,102566.34
2023-04-09T01:33:20.926Z,102581.91
2023-04-09T01:36:23.483Z,102585.81
2023-04-09T01:39:26.352Z,102576.94
2023-04-09T01:42:28.984Z,102573.63
2023-04-09T01:45:32.930Z,102570.34
2023-04-09T01:48:35.416Z,102576.47
2023-04-09T01:51:37.898Z,102572.66
2023-04-09T01:54:40.393Z,102570.47
2023-04-09T01:57:42.916Z,102572.75
2023-04-09T02:00:48.329Z,102565.53
2023-04-09T02:03:53.257Z,102563.34
2023-04-09T02:07:00.031Z,102558.91
2023-04-09T02:10:02.649Z,102568.69
2023-04-09T02:13:05.761Z,102562.59
2023-04-09T02:16:09.677Z,102551.25
2023-04-09T02:19:12.233Z,102559.88
2023-04-09T02:22:14.825Z,102553.59
2023-04-09T02:25:17.350Z,102557.25
2023-04-09T02:28:19.893Z,102550.97
2023-04-09T02:31:23.865Z,102548.47
2023-04-09T02:34:26.432Z,102548.22
2023-04-09T02:37:28.947Z,102550.50
2023-04-09T02:40:31.483Z,102548.84
2023-04-09T02:43:34.059Z,102547.19
2023-04-09T02:46:39.058Z,102553.03
2023-04-09T02:49:41.649Z,102549.41
2023-04-09T02:52:46.588Z,102540.59
2023-04-09T02:55:49.163Z,102537.25
2023-04-09T02:58:54.260Z,102530.06
2023-04-09T03:01:58.453Z,102536.22
2023-04-09T03:05:01.258Z,102528.47
2023-04-09T03:08:03.831Z,102532.06
2023-04-09T03:11:06.417Z,102522.38
2023-04-09T03:14:08.996Z,102526.31
2023-04-09T03:17:12.868Z,102524.66
2023-04-09T03:20:15.422Z,102516.63
2023-04-09T03:23:18.028Z,102514.97
2023-04-09T03:26:20.710Z,102518.84
2023-04-09T03:29:23.249Z,102515.25
2023-04-09T03:32:27.150Z,102515.78
2023-04-09T03:35:29.790Z,102511.91
2023-04-09T03:38:32.330Z,102498.03
2023-04-09T03:41:34.844Z,102503.28
2023-04-09T03:44:37.396Z,102489.69
2023-04-09T03:47:41.360Z,102501.84
2023-04-09T03:50:43.903Z,102504.03
2023-04-09T03:53:46.403Z,102512.06
2023-04-09T03:56:49.968Z,102514.03
2023-04-09T03:59:52.553Z,102513.47
2023-04-09T04:02:56.634Z,102512.44
2023-04-09T04:06:01.347Z,102507.16
2023-04-09T04:09:03.860Z,102500.19
2023-04-09T04:12:06.674Z,102506.81
2023-04-09T04:15:10.055Z,102497.59
2023-04-09T04:18:13.905Z,102495.56
2023-04-09T04:21:16.633Z,102502.16
2023-04-09T04:24:19.125Z,102497.69
2023-04-09T04:27:21.638Z,102495.09
2023-04-09T04:30:24.274Z,102494.22
2023-04-09T04:33:28.215Z,102489.72
2023-04-09T04:36:30.979Z,102499.09
2023-04-09T04:39:34.009Z,102499.34
2023-04-09T04:42:36.618Z,102500.66
2023-04-09T04:45:39.191Z,102498.41
2023-04-09T04:48:43.127Z,102498.63
2023-04-09T04:51:45.685Z,102502.78
2023-04-09T04:54:48.207Z,102506.91
2023-04-09T04:57:52.241Z,102512.69
2023-04-09T05:00:54.780Z,102514.03
2023-04-09T05:03:58.694Z,102514.53
2023-04-09T05:07:01.415Z,102520.34
2023-04-09T05:10:04.110Z,102518.06
2023-04-09T05:13:06.675Z,102520.25
2023-04-09T05:16:09.276Z,102515.22
2023-04-09T05:19:13.205Z,102516.84
2023-04-09T05:22:15.781Z,102518.50
2023-04-09T05:25:18.430Z,102512.38
2023-04-09T05:28:21.003Z,102509.59
2023-04-09T05:31:23.779Z,102508.47
2023-04-09T05:34:27.964Z,102512.56
2023-04-09T05:37:30.685Z,102515.06
2023-04-09T05:40:33.277Z,102513.63
2023-04-09T05:43:35.785Z,102513.31
2023-04-09T05:46:38.264Z,102512.72
2023-04-09T05:49:42.119Z,102511.59
2023-04-09T05:52:44.635Z,102524.34
2023-04-09T05:55:49.066Z,102518.47
2023-04-09T05:58:52.012Z,102523.75
2023-04-09T06:01:54.581Z,102523.44
2023-04-09T06:04:58.512Z,102520.03
2023-04-09T06:08:01.499Z,102521.69
2023-04-09T06:11:04.727Z,102523.34
2023-04-09T06:14:07.273Z,102523.06
2023-04-09T06:17:09.772Z,102516.38
2023-04-09T06:20:13.739Z,102521.59
2023-04-09T06:23:16.314Z,102513.25
2023-04-09T06:26:18.889Z,102522.97
2023-04-09T06:29:23.755Z,102520.72
2023-04-09T06:32:26.913Z,102525.66
2023-04-09T06:35:30.931Z,102534.50
2023-04-09T06:38:33.505Z,102532.22
2023-04-09T06:41:36.284Z,102531.63
2023-04-09T06:44:38.848Z,102531.34
2023-04-09T06:47:42.501Z,102531.84
2023-04-09T06:50:46.561Z,102538.22
2023-04-09T06:53:49.696Z,102529.59
2023-04-09T06:56:52.505Z,102537.63
2023-04-09T06:59:55.074Z,102533.19
2023-04-09T07:02:57.783Z,102535.38
2023-04-09T07:06:02.041Z,102529.81
2023-04-09T07:09:04.793Z,102536.22
2023-04-09T07:12:07.369Z,102531.47
2023-04-09T07:15:10.199Z,102538.69
2023-04-09T07:18:12.729Z,102526.44
2023-04-09T07:21:16.873Z,102528.63
2023-04-09T07:24:19.367Z,102526.34
2023-04-09T07:27:21.960Z,102526.34
2023-04-09T07:30:24.536Z,102524.91
2023-04-09T07:33:27.104Z,102531.31
2023-04-09T07:36:31.677Z,102532.97
2023-04-09T07:39:34.537Z,102531.81
2023-04-09T07:42:38.183Z,102530.69
2023-04-09T07:45:40.748Z,102526.16
2023-04-09T07:48:43.352Z,102530.09
2023-04-09T07:51:47.218Z,102530.56
2023-04-09T07:54:49.775Z,102524.72
2023-04-09T07:57:53.244Z,102522.75
2023-04-09T08:00:55.861Z,102528.03
2023-04-09T08:03:58.627Z,102519.97
2023-04-09T08:07:02.649Z,102517.72
2023-04-09T08:10:06.361Z,102530.50
2023-04-09T08:13:10.186Z,102534.41
2023-04-09T08:16:14.500Z,102531.34
2023-04-09T08:19:17.155Z,102532.13
2023-04-09T08:22:21.240Z,102535.44
2023-04-09T08:25:24.032Z,102536.28
2023-04-09T08:28:26.642Z,102533.19
2023-04-09T08:31:29.206Z,102535.97
2023-04-09T08:34:31.780Z,102538.75
2023-04-09T08:37:35.678Z,102541.84
2023-04-09T08:40:38.298Z,102542.66
2023-04-09T08:43:56.131Z,102545.97
2023-04-09T08:47:00.100Z,102544.31
2023-04-09T08:50:02.623Z,102542.66
2023-04-09T08:53:07.201Z,102542.34
2023-04-09T08:56:09.771Z,102540.41
2023-04-09T08:59:12.259Z,102537.28
2023-04-09T09:02:15.030Z,102539.56
2023-04-09T09:05:17.630Z,102540.41
2023-04-09T09:08:25.800Z,102534.84
2023-04-09T09:11:28.927Z,102545.34
2023-04-09T09:14:32.469Z,102543.69
2023-04-09T09:17:35.625Z,102538.34
2023-04-09T09:20:38.469Z,102537.53
2023-04-09T09:23:42.847Z,102533.81
2023-04-09T09:26:45.520Z,102546.59
2023-04-09T09:29:48.100Z,102540.19
2023-04-09T09:32:53.155Z,102534.03
2023-04-09T09:35:57.615Z,102537.31
2023-04-09T09:39:03.767Z,102531.75
2023-04-09T09:42:08.342Z,102520.59
2023-04-09T09:45:19.182Z,102523.38
2023-04-09T09:48:21.667Z,102518.94
2023-04-09T09:51:28.200Z,102511.66
2023-04-09T09:54:33.244Z,102518.88
2023-04-09T09:57:35.816Z,102517.72
2023-04-09T10:00:38.467Z,102504.97
2023-04-09T10:03:42.248Z,102502.19
2023-04-09T10:06:45.384Z,102504.97
2023-04-09T10:09:50.710Z,102502.66
2023-04-09T10:12:53.241Z,102505.97
2023-04-09T10:15:55.837Z,102510.91
2023-04-09T10:18:58.963Z,102505.34
2023-04-09T10:22:05.608Z,102498.88
2023-04-09T10:25:10.545Z,102486.78
2023-04-09T10:28:16.412Z,102483.88
2023-04-09T10:31:19.040Z,102484.41
2023-04-09T10:34:23.250Z,102479.03
2023-04-09T10:37:26.434Z,102474.16
2023-04-09T10:40:30.389Z,102473.75
2023-04-09T10:43:32.900Z,102474.16
2023-04-09T10:46:36.280Z,102478.66
2023-04-09T10:49:39.367Z,102473.50
2023-04-09T10:52:42.144Z,102469.63
2023-04-09T10:55:49.863Z,102465.25
2023-04-09T10:58:52.537Z,102468.06
2023-04-09T11:01:55.311Z,102464.22
2023-04-09T11:05:02.056Z,102449.25
2023-04-09T11:08:06.647Z,102442.78
2023-04-09T11:11:11.449Z,102439.13
2023-04-09T11:14:20.439Z,102446.38
2023-04-09T11:17:23.118Z,102437.25
2023-04-09T11:20:26.496Z,102440.88
2023-04-09T11:23:28.998Z,102441.09
2023-04-09T11:26:37.654Z,102429.09
2023-04-09T11:29:40.522Z,102429.63
2023-04-09T11:32:43.116Z,102425.06
2023-04-09T11:35:45.785Z,102421.72
2023-04-09T11:38:49.195Z,102426.69
2023-04-09T11:41:53.238Z,102417.81
2023-04-09T11:44:55.836Z,102420.19
2023-04-09T11:47:58.519Z,102411.94
2023-04-09T11:51:01.503Z,102408.81
2023-04-09T11:54:04.158Z,102410.47
2023-04-09T11:57:08.071Z,102402.09
2023-04-09T12:00:11.962Z,102413.13
2023-04-09T12:03:16.289Z,102404.38
2023-04-09T12:06:19.419Z,102416.88
2023-04-09T12:09:21.944Z,102413.25
2023-04-09T12:12:26.343Z,102412.06
2023-04-09T12:15:34.745Z,102405.25
2023-04-09T12:18:37.416Z,102403.94
2023-04-09T12:21:47.181Z,102403.28
2023-04-09T12:24:49.692Z,102418.06
2023-04-09T12:27:54.068Z,102419.16
2023-04-09T12:30:57.601Z,102419.16
2023-04-09T12:34:00.461Z,102416.13
2023-04-09T12:37:03.025Z,102413.13
2023-04-09T12:40:06.480Z,102401.44
2023-04-09T12:43:10.476Z,102409.50
2023-04-09T12:46:13.031Z,102404.94
2023-04-09T12:49:16.699Z,102401.31
2023-04-09T12:52:19.435Z,102402.94
2023-04-09T12:55:21.932Z,102402.41
2023-04-09T12:58:25.865Z,102390.53
2023-04-09T13:01:28.445Z,102388.78
2023-04-09T13:04:31.296Z,102390.00
2023-04-09T13:07:34.001Z,102397.53
2023-04-09T13:10:36.839Z,102390.56
2023-04-09T13:13:42.639Z,102391.34
2023-04-09T13:16:45.329Z,102390.44
2023-04-09T13:19:47.915Z,102390.03
2023-04-09T13:22:50.916Z,102380.03
2023-04-09T13:25:53.473Z,102377.25
2023-04-09T13:28:57.528Z,102361.75
2023-04-09T13:32:02.473Z,102365.38
2023-04-09T13:35:05.370Z,102357.16
2023-04-09T13:38:07.916Z,102353.19
2023-04-09T13:41:10.553Z,102351.81
2023-04-09T13:44:14.483Z,102344.16
2023-04-09T13:47:17.664Z,102348.38
2023-04-09T13:50:20.290Z,102341.13
2023-04-09T13:53:24.185Z,102329.91
2023-04-09T13:56:27.409Z,102335.53
2023-04-09T13:59:31.355Z,102320.91
2023-04-09T14:02:34.073Z,102332.66
2023-04-09T14:05:36.707Z,102320.38
2023-04-09T14:08:39.205Z,102306.25
2023-04-09T14:11:41.734Z,102299.69
2023-04-09T14:14:45.728Z,102283.13
2023-04-09T14:17:48.283Z,102284.56
2023-04-09T14:20:51.064Z,102285.91
2023-04-09T14:23:53.636Z,102283.13
2023-04-09T14:26:56.745Z,102274.69
2023-04-09T14:30:00.689Z,102271.84
2023-04-09T14:33:03.267Z,102264.84
2023-04-09T14:36:06.272Z,102267.56
2023-04-09T14:39:09.022Z,102259.31
2023-04-09T14:42:12.505Z,102253.50
2023-04-09T14:45:16.540Z,102256.31
2023-04-09T14:48:19.115Z,102258.16
2023-04-09T14:51:21.687Z,102257.47
2023-04-09T14:54:24.229Z,102247.28
2023-04-09T14:57:26.768Z,102253.91
2023-04-09T15:00:31.373Z,102240.34
2023-04-09T15:03:34.233Z,102245.97
2023-04-09T15:06:37.055Z,102239.44
2023-04-09T15:09:39.574Z,102236.16
2023-04-09T15:12:42.134Z,102236.06
2023-04-09T15:15:46.293Z,102235.25
2023-04-09T15:18:51.285Z,102238.03
2023-04-09T15:21:54.001Z,102234.28
2023-04-09T15:24:56.532Z,102228.81
2023-04-09T15:27:59.526Z,102233.34
2023-04-09T15:31:03.693Z,102229.84
2023-04-09T15:34:06.910Z,102227.25
2023-04-09T15:37:09.435Z,102232.66
2023-04-09T15:40:13.120Z,102227.28
2023-04-09T15:43:15.722Z,102220.03
2023-04-09T15:46:19.695Z,102223.56
2023-04-09T15:49:22.843Z,102212.34
2023-04-09T15:52:25.765Z,102210.00
2023-04-09T15:55:28.367Z,102205.06
2023-04-09T15:58:30.887Z,102198.53
2023-04-09T16:01:34.889Z,102200.88
2023-04-09T16:04:37.539Z,102203.00
2023-04-09T16:07:40.285Z,102191.38
2023-04-09T16:10:42.881Z,102194.56
2023-04-09T16:13:46.081Z,102189.88
2023-04-09T16:16:51.166Z,102189.97
2023-04-09T16:19:54.011Z,102189.88
2023-04-09T16:22:56.607Z,102184.28
2023-04-09T16:25:59.279Z,102188.97
2023-04-09T16:29:03.992Z,102184.97
2023-04-09T16:32:08.139Z,102182.63
2023-04-09T16:35:10.953Z,102178.66
2023-04-09T16:38:13.543Z,102179.81
2023-04-09T16:41:16.152Z,102182.63
2023-04-09T16:44:18.668Z,102175.84
2023-04-09T16:47:22.581Z,102170.25
2023-04-09T16:50:25.264Z,102171.41
2023-04-09T16:53:27.784Z,102177.00
2023-04-09T16:56:30.452Z,102181.00
2023-04-09T16:59:33.444Z,102172.91
2023-04-09T17:02:39.297Z,102177.25
2023-04-09T17:05:42.013Z,102171.91
2023-04-09T17:08:44.519Z,102175.06
2023-04-09T17:11:47.119Z,102178.19
2023-04-09T17:14:49.967Z,102178.91
2023-04-09T17:17:54.057Z,102179.63
2023-04-09T17:20:57.009Z,102173.19
2023-04-09T17:23:59.652Z,102172.72
2023-04-09T17:27:02.223Z,102180.19
2023-04-09T17:30:05.442Z,102174.50
2023-04-09T17:33:09.426Z,102175.16
2023-04-09T17:36:11.991Z,102168.94
2023-04-09T17:39:14.591Z,102177.25
2023-04-09T17:42:17.119Z,102173.06
2023-04-09T17:45:19.824Z,102173.75
2023-04-09T17:48:23.696Z,102175.28
2023-04-09T17:51:26.950Z,102173.88
2023-04-09T17:54:33.352Z,102166.03
2023-04-09T17:57:36.417Z,102165.91
2023-04-09T18:00:40.208Z,102168.13
2023-04-09T18:03:45.560Z,102167.19
2023-04-09T18:06:48.419Z,102179.91
2023-04-09T18:09:50.980Z,102171.72
2023-04-09T18:12:53.504Z,102174.38
2023-04-09T18:15:56.554Z,102176.25
2023-04-09T18:19:00.434Z,102176.97
2023-04-09T18:22:02.957Z,102170.41
2023-04-09T18:25:07.009Z,102174.59
2023-04-09T18:28:09.760Z,102170.84
2023-04-09T18:31:12.412Z,102175.53
2023-04-09T18:34:16.697Z,102176.19
2023-04-09T18:37:19.290Z,102176.41
2023-04-09T18:40:21.976Z,102173.84
2023-04-09T18:43:24.500Z,102178.00
2023-04-09T18:46:27.152Z,102179.84
2023-04-09T18:49:31.037Z,102177.41
2023-04-09T18:52:33.605Z,102176.09
2023-04-09T18:55:37.936Z,102178.41
2023-04-09T18:58:41.069Z,102183.06
2023-04-09T19:01:43.668Z,102185.69
2023-04-09T19:04:47.753Z,102188.38
2023-04-09T19:07:50.556Z,102189.06
2023-04-09T19:10:53.543Z,102185.78
2023-04-09T19:13:56.044Z,102191.22
2023-04-09T19:16:58.892Z,102185.84
2023-04-09T19:20:02.795Z,102180.47
2023-04-09T19:23:06.542Z,102179.84
2023-04-09T19:26:09.683Z,102181.69
2023-04-09T19:29:12.264Z,102183.06
2023-04-09T19:32:14.872Z,102183.25
2023-04-09T19:35:18.803Z,102179.50
2023-04-09T19:38:21.596Z,102178.53
2023-04-09T19:41:24.132Z,102177.94
2023-04-09T19:44:26.697Z,102182.88
2023-04-09T19:47:29.286Z,102180.28
2023-04-09T19:50:35.387Z,102177.69
2023-04-09T19:53:39.108Z,102165.53
2023-04-09T19:56:42.416Z,102164.09
2023-04-09T19:59:44.997Z,102160.31
2023-04-09T20:02:47.635Z,102150.50
2023-04-09T20:05:51.720Z,102148.72
2023-04-09T20:08:55.902Z,102150.19
2023-04-09T20:12:04.112Z,102141.69
2023-04-09T20:15:09.822Z,102143.97
2023-04-09T20:18:12.972Z,102141.06
2023-04-09T20:21:16.863Z,102147.31
2023-04-09T20:24:19.489Z,102139.28
2023-04-09T20:27:22.492Z,102148.47
2023-04-09T20:30:25.011Z,102141.25
2023-04-09T20:33:27.707Z,102147.81
2023-04-09T20:36:31.607Z,102154.91
2023-04-09T20:39:34.211Z,102141.44
2023-04-09T20:42:36.744Z,102143.59
2023-04-09T20:45:39.405Z,102146.09
2023-04-09T20:48:42.324Z,102146.75
2023-04-09T20:51:46.243Z,102137.91
2023-04-09T20:54:48.763Z,102147.41
2023-04-09T20:57:51.777Z,102134.59
2023-04-09T21:01:03.587Z,102136.06
2023-04-09T21:04:06.507Z,102135.44
2023-04-09T21:07:10.440Z,102141.22
2023-04-09T21:10:13.117Z,102148.94
2023-04-09T21:13:15.619Z,102140.75
2023-04-09T21:16:18.155Z,102143.38
2023-04-09T21:19:20.810Z,102132.38
2023-04-09T21:22:26.559Z,102136.19
2023-04-09T21:25:29.284Z,102133.72
2023-04-09T21:28:31.812Z,102137.66
2023-04-09T21:31:35.523Z,102127.31
2023-04-09T21:34:39.486Z,102126.50
2023-04-09T21:37:43.371Z,102127.66
2023-04-09T21:40:46.633Z,102126.66
2023-04-09T21:43:49.167Z,102126.19
2023-04-09T21:46:52.134Z,102126.53
2023-04-09T21:49:54.639Z,102125.19
2023-04-09T21:52:58.547Z,102126.84
2023-04-09T21:56:03.461Z,102123.56
2023-04-09T21:59:07.280Z,102125.88
2023-04-09T22:02:10.013Z,102119.31
2023-04-09T22:05:12.775Z,102120.63
2023-04-09T22:08:16.728Z,102118.69
2023-04-09T22:11:19.785Z,102113.25
2023-04-09T22:14:22.481Z,102115.06
2023-04-09T22:17:25.089Z,102099.47
2023-04-09T22:20:27.668Z,102110.16
2023-04-09T22:23:31.604Z,102105.72
2023-04-09T22:26:34.176Z,102100.78
2023-04-09T22:29:37.022Z,102105.88
2023-04-09T22:32:39.540Z,102097.03
2023-04-09T22:35:42.111Z,102095.69
2023-04-09T22:38:46.093Z,102102.28
2023-04-09T22:41:48.679Z,102101.31
2023-04-09T22:44:51.213Z,102101.94
2023-04-09T22:47:53.759Z,102091.47
2023-04-09T22:50:57.636Z,102088.94
2023-04-09T22:54:01.793Z,102086.47
2023-04-09T22:57:04.532Z,102083.00
2023-04-09T23:00:08.963Z,102092.63
2023-04-09T23:03:11.622Z,102092.63
2023-04-09T23:06:14.276Z,102085.44
2023-04-09T23:09:18.202Z,102079.19
2023-04-09T23:12:20.800Z,102075.25
2023-04-09T23:15:23.494Z,102072.00
2023-04-09T23:18:26.062Z,102072.00
2023-04-09T23:21:28.844Z,102066.25
2023-04-09T23:24:32.749Z,102056.59
2023-04-09T23:27:35.252Z,102053.81
2023-04-09T23:30:37.801Z,102048.03
2023-04-09T23:33:40.304Z,102039.53
2023-04-09T23:36:42.859Z,102041.81
2023-04-09T23:39:47.143Z,102041.81
2023-04-09T23:42:50.201Z,102042.94
2023-04-09T23:45:52.756Z,102040.63
2023-04-09T23:48:55.385Z,102032.63
2023-04-09T23:51:57.868Z,102031.97
2023-04-09T23:55:01.696Z,102026.91
2023-04-09T23:58:04.448Z,102019.38
